Historyczne dane pomiarowe

Dodano dane terminowe – wersja testowa.

Dane z okresu 1951-2019

Wersja bazy: 1.34 [2019-03-16, lista zmian], aktualizacja planowana na 2019-04-15

Dane meteo z obszaru Polski uzyskane na podstawie danych udostępnionych przez Instytut Meteorologii i Gospodarki Wodnej – Państwowy Instytut Badawczy.

 

Wybierz Datę:    

       

TemperaturaWilgotnośćZachmurzenieWiatrCiśnienieWidzialnośćZjawiska
 Data    tng td wb rh cc ccl cl cm ch dir g1 g2 mslp ppp      
1994-07-07 00:00:00 12.4--- 11.3 11.893wxwx0wx--1016.1 975.2 0.0---wx
1994-07-07 01:00:00 12.5--- 12.0 12.297wxwx0wx--1015.7 974.9----wx
1994-07-07 02:00:00 11.6--- 10.9 11.295wxwxwx0wx--1015.1 974.2----wx
1994-07-07 03:00:00 11.8--- 11.1 11.495wxwxwxwx0wx--1014.9 974.0----wx
1994-07-07 04:00:00 11.3--- 10.8 11.096wxwxwxwx1wx--1014.9 973.9----wx
1994-07-07 05:00:00 12.8--- 11.9 12.394wxwxwxwx1wx--1014.6 973.9----wx
1994-07-07 06:00:00 15.4--- 13.7 14.490wxwxwxwx0wx--1013.9 973.5 0.0---wxw1
1994-07-07 07:00:00 19.8--- 14.1 16.370wxwxwxwxwx0wx--1012.8 973.1----wx
1994-07-07 08:00:00 22.8--- 12.0 16.351wxwxwxwx4wx--1012.1 972.8----wx
1994-07-07 09:00:00 21.5--- 13.0 16.358wxwxwx2wx--1012.2 972.7----wx
1994-07-07 10:00:00 23.5--- 12.5 16.850wxwxwx2wx--1011.7 972.5----wx
1994-07-07 11:00:00 20.6--- 12.3 15.659wxwxwx4wx--1012.0 972.4----wx
1994-07-07 12:00:00 19.7--- 14.2 16.371wxwxwxwx1wx--1012.1 972.4 0.0---wx
1994-07-07 13:00:00 18.5--- 14.8 16.279wxwxwx3wx--1012.7 972.8----wxw1
1994-07-07 14:00:00 17.5--- 14.6 15.783wxwxwx2wx--1013.0 973.0----wx
1994-07-07 15:00:00 16.4--- 13.9 14.985wxwxwx2wx--1013.3 973.1----wxw1
1994-07-07 16:00:00 16.7--- 13.9 15.084wxwxwxwx2wx--1013.2 973.0----wx
1994-07-07 17:00:00 16.5--- 14.4 15.287wxwxwx1wx--1013.1 972.9----wx
1994-07-07 18:00:00 16.2--- 14.2 15.088wxwxwx0wx--1012.8 972.6 0.1---wxw1
1994-07-07 19:00:00 15.5--- 14.0 14.691wxwxwx1wx--1013.6 973.3----wx
1994-07-07 20:00:00 15.1--- 13.9 14.493wxwxwx0wx--1013.9 973.5----wx
1994-07-07 21:00:00 15.0--- 12.1 13.383wxwxwx3wx--1014.4 974.0----wxw1
1994-07-07 22:00:00 14.2--- 11.8 12.885wxwxwx0wx--1014.3 973.8----wx
1994-07-07 23:00:00 14.0--- 11.6 12.685wxwxwxwxwx3wx--1014.2 973.6----wx

 

Źródłem pochodzenia danych jest Instytut Meteorologii i Gospodarki Wodnej – Państwowy Instytut Badawczy. Dane Instytutu Meteorologii i Gospodarki Wodnej – Państwowego Instytutu Badawczego zostały przetworzone.

Dane źródłowe można odnaleźć na stronie https://dane.imgw.pl